KPGV/PGV METAR and TAF weather

Enter ICAO airport designator
Station Type Date Time Source
KPGV METAR 2020/01/17 14:15 UTC NOAA

KPGV 171415Z AUTO 02011G20KT 10SM CLR 03/M08 A3066 RMK AO2


Station Type Date Time Source
KPGV Decoded METAR 2020/01/17 14:15 UTC NOAA

Pitt-Greenville Airport, NC, United States (KPGV) 35-38N 077-24W
Jan 17, 2020 - 09:15 AM EST / 2020.01.17 1415 UTC
Wind: from the NNE (020 degrees) at 13 MPH (11 KT) gusting to 23 MPH (20 KT):0
Visibility: 10 mile(s):0
Sky conditions: clear
Temperature: 37 F (3 C)
Dew Point: 17 F (-8 C)
Relative Humidity: 44%
Pressure (altimeter): 30.66 in. Hg (1038 hPa)
ob: KPGV 171415Z AUTO 02011G20KT 10SM CLR 03/M08 A3066 RMK AO2
cycle: 14

Station Type Date Time Source
KPGV TAF 2020/01/17 12:27 UTC NOAA

TAF KPGV 171124Z 1712/1812 02010G20KT P6SM FEW250
FM172300 VRB03KT P6SM FEW150
AMD LTD TO CLD VIS AND WIND

Example: see airport list